createdAt,value
2022-08-12T00:01:17.217Z,97784.16
2022-08-12T00:04:13.812Z,97788.75
2022-08-12T00:07:00.076Z,97781.31
2022-08-12T00:09:46.798Z,97790.50
2022-08-12T00:12:37.205Z,97788.78
2022-08-12T00:15:25.924Z,97796.03
2022-08-12T00:18:12.950Z,97796.22
2022-08-12T00:21:01.045Z,97796.06
2022-08-12T00:23:47.090Z,97793.53
2022-08-12T00:26:34.586Z,97791.25
2022-08-12T00:29:21.785Z,97790.09
2022-08-12T00:32:08.719Z,97790.84
2022-08-12T00:34:59.969Z,97789.94
2022-08-12T00:37:54.861Z,97786.56
2022-08-12T00:40:45.587Z,97780.47
2022-08-12T00:43:16.686Z,97794.09
2022-08-12T00:46:10.714Z,97789.38
2022-08-12T00:48:40.766Z,97793.75
2022-08-12T00:51:10.148Z,97792.81
2022-08-12T00:53:39.676Z,97792.81
2022-08-12T00:56:08.005Z,97793.88
2022-08-12T00:58:37.208Z,97795.78
2022-08-12T01:01:09.015Z,97802.03
2022-08-12T01:03:59.634Z,97794.94
2022-08-12T01:06:51.178Z,97797.69
2022-08-12T01:09:42.039Z,97796.75
2022-08-12T01:12:12.311Z,97791.00
2022-08-12T01:14:41.361Z,97788.78
2022-08-12T01:17:09.874Z,97788.16
2022-08-12T01:19:38.331Z,97787.34
2022-08-12T01:22:52.629Z,97782.34
2022-08-12T01:25:23.216Z,97788.34
2022-08-12T01:27:53.227Z,97786.13
2022-08-12T01:30:21.499Z,97791.56
2022-08-12T01:32:51.247Z,97787.22
2022-08-12T01:35:19.967Z,97788.03
2022-08-12T01:37:49.481Z,97790.16
2022-08-12T01:40:35.437Z,97795.63
2022-08-12T01:43:13.474Z,97785.31
2022-08-12T01:46:41.437Z,97786.63
2022-08-12T01:49:33.803Z,97780.84
2022-08-12T01:52:19.980Z,97776.56
2022-08-12T01:54:51.400Z,97776.97
2022-08-12T01:57:58.794Z,97771.94
2022-08-12T02:00:54.792Z,97780.81
2022-08-12T02:03:53.286Z,97772.00
2022-08-12T02:06:55.365Z,97771.31
2022-08-12T02:10:49.933Z,97764.13
2022-08-12T02:13:48.145Z,97767.19
2022-08-12T02:16:54.117Z,97762.38
2022-08-12T02:19:47.235Z,97773.41
2022-08-12T02:22:31.411Z,97776.50
2022-08-12T02:25:19.057Z,97779.13
2022-08-12T02:27:50.532Z,97780.81
2022-08-12T02:30:26.845Z,97774.44
2022-08-12T02:33:06.203Z,97770.78
2022-08-12T02:35:36.533Z,97776.09
2022-08-12T02:38:09.070Z,97769.38
2022-08-12T02:40:45.402Z,97766.94
2022-08-12T02:43:30.552Z,97761.94
2022-08-12T02:46:14.421Z,97761.81
2022-08-12T02:49:00.885Z,97777.28
2022-08-12T02:51:41.614Z,97767.75
2022-08-12T02:54:09.476Z,97763.25
2022-08-12T02:56:41.162Z,97759.34
2022-08-12T02:59:14.206Z,97758.75
2022-08-12T03:01:49.814Z,97761.47
2022-08-12T03:04:50.833Z,97756.53
2022-08-12T03:07:53.501Z,97760.78
2022-08-12T03:10:17.993Z,97761.72
2022-08-12T03:12:57.701Z,97752.41
2022-08-12T03:15:25.981Z,97760.66
2022-08-12T03:18:27.299Z,97754.28
2022-08-12T03:21:01.918Z,97767.84
2022-08-12T03:23:31.482Z,97763.16
2022-08-12T03:26:02.653Z,97762.78
2022-08-12T03:28:51.354Z,97770.56
2022-08-12T03:31:21.949Z,97768.19
2022-08-12T03:34:01.754Z,97765.34
2022-08-12T03:36:37.188Z,97760.13
2022-08-12T03:39:18.753Z,97766.25
2022-08-12T03:42:01.817Z,97762.72
2022-08-12T03:45:05.656Z,97763.19
2022-08-12T03:48:18.570Z,97772.63
2022-08-12T03:51:07.215Z,97769.91
2022-08-12T03:53:54.933Z,97772.09
2022-08-12T03:56:41.228Z,97770.09
2022-08-12T03:59:27.973Z,97766.78
2022-08-12T04:01:59.084Z,97769.97
2022-08-12T04:04:34.195Z,97767.94
2022-08-12T04:07:08.067Z,97766.50
2022-08-12T04:09:39.361Z,97768.19
2022-08-12T04:12:26.894Z,97769.47
2022-08-12T04:15:01.833Z,97779.00
2022-08-12T04:17:30.252Z,97779.25
2022-08-12T04:19:59.391Z,97780.53
2022-08-12T04:22:37.789Z,97778.06
2022-08-12T04:25:08.909Z,97778.28
2022-08-12T04:27:36.816Z,97773.34
2022-08-12T04:30:16.685Z,97771.06
2022-08-12T04:32:55.450Z,97771.44
2022-08-12T04:35:23.294Z,97767.31
2022-08-12T04:37:59.718Z,97766.94
2022-08-12T04:40:32.178Z,97761.75
2022-08-12T04:43:01.688Z,97769.06
2022-08-12T04:45:31.568Z,97765.50
2022-08-12T04:48:02.014Z,97765.50
2022-08-12T04:50:36.080Z,97763.66
2022-08-12T04:53:10.009Z,97767.16
2022-08-12T04:55:39.623Z,97770.94
2022-08-12T04:58:08.921Z,97770.09
2022-08-12T05:00:38.110Z,97770.94
2022-08-12T05:03:07.490Z,97771.19
2022-08-12T05:05:37.978Z,97768.22
2022-08-12T05:08:18.415Z,97777.31
2022-08-12T05:10:48.246Z,97777.31
2022-08-12T05:13:33.739Z,97776.63
2022-08-12T05:16:05.692Z,97776.63
2022-08-12T05:18:40.037Z,97778.06
2022-08-12T05:21:09.522Z,97775.34
2022-08-12T05:23:40.439Z,97784.06
2022-08-12T05:26:08.889Z,97785.13
2022-08-12T05:28:37.518Z,97794.69
2022-08-12T05:31:06.066Z,97791.16
2022-08-12T05:33:37.839Z,97792.34
2022-08-12T05:36:15.337Z,97795.44
2022-08-12T05:38:57.293Z,97801.88
2022-08-12T05:41:32.831Z,97806.25
2022-08-12T05:44:07.394Z,97807.69
2022-08-12T05:46:36.974Z,97817.00
2022-08-12T05:49:06.003Z,97813.84
2022-08-12T05:51:39.904Z,97811.25
2022-08-12T05:54:11.531Z,97822.00
2022-08-12T05:56:41.512Z,97833.22
2022-08-12T05:59:12.116Z,97823.56
2022-08-12T06:02:10.328Z,97829.56
2022-08-12T06:04:30.800Z,97841.16
2022-08-12T06:06:58.810Z,97827.97
2022-08-12T06:09:30.303Z,97822.91
2022-08-12T06:12:05.621Z,97825.16
2022-08-12T06:14:38.801Z,97829.66
2022-08-12T06:17:10.327Z,97827.06
2022-08-12T06:20:27.770Z,97829.53
2022-08-12T06:22:26.760Z,97829.66
2022-08-12T06:24:54.644Z,97828.63
2022-08-12T06:27:22.486Z,97835.22
2022-08-12T06:30:08.481Z,97837.47
2022-08-12T06:32:51.823Z,97827.91
2022-08-12T06:35:47.039Z,97829.69
2022-08-12T06:38:25.356Z,97825.19
2022-08-12T06:41:14.554Z,97824.38
2022-08-12T06:44:06.198Z,97833.69
2022-08-12T06:46:32.706Z,97826.28
2022-08-12T06:49:00.629Z,97826.88
2022-08-12T06:51:32.480Z,97822.41
2022-08-12T06:54:01.791Z,97827.13
2022-08-12T06:57:01.760Z,97830.78
2022-08-12T06:59:21.417Z,97828.19
2022-08-12T07:01:51.539Z,97825.19
2022-08-12T07:04:38.009Z,97828.28
2022-08-12T07:07:10.834Z,97829.78
2022-08-12T07:10:01.419Z,97830.97
2022-08-12T07:12:31.696Z,97831.09
2022-08-12T07:15:01.763Z,97830.00
2022-08-12T07:17:36.450Z,97829.31
2022-08-12T07:20:20.258Z,97830.47
2022-08-12T07:22:59.639Z,97824.66
2022-08-12T07:25:40.278Z,97828.19
2022-08-12T07:28:18.361Z,97825.09
2022-08-12T07:30:51.360Z,97838.56
2022-08-12T07:33:25.125Z,97831.59
2022-08-12T07:35:54.436Z,97837.13
2022-08-12T07:38:38.975Z,97836.97
2022-08-12T07:41:21.037Z,97831.66
2022-08-12T07:43:59.059Z,97829.28
2022-08-12T07:46:39.170Z,97832.69
2022-08-12T07:49:14.051Z,97829.22
2022-08-12T07:51:44.000Z,97828.47
2022-08-12T07:54:12.968Z,97824.75
2022-08-12T07:56:42.379Z,97828.66
2022-08-12T07:59:10.905Z,97830.16
2022-08-12T08:01:39.283Z,97831.03
2022-08-12T08:04:26.181Z,97823.78
2022-08-12T08:06:54.402Z,97825.31
2022-08-12T08:09:24.198Z,97811.47
2022-08-12T08:12:18.536Z,97815.09
2022-08-12T08:14:49.917Z,97812.81
2022-08-12T08:17:18.337Z,97806.03
2022-08-12T08:20:03.675Z,97802.53
2022-08-12T08:22:41.387Z,97817.38
2022-08-12T08:25:34.923Z,97813.66
2022-08-12T08:28:08.516Z,97814.31
2022-08-12T08:30:39.940Z,97818.19
2022-08-12T08:33:22.790Z,97815.22
2022-08-12T08:35:54.482Z,97821.31
2022-08-12T08:38:32.311Z,97827.34
2022-08-12T08:42:15.272Z,97815.69
2022-08-12T08:44:12.398Z,97812.78
2022-08-12T08:46:41.317Z,97813.63
2022-08-12T08:49:09.161Z,97810.72
2022-08-12T08:51:39.078Z,97806.72
2022-08-12T08:54:12.622Z,97811.72
2022-08-12T08:57:01.456Z,97804.75
2022-08-12T08:59:30.272Z,97803.81
2022-08-12T09:01:58.661Z,97806.31
2022-08-12T09:05:12.843Z,97801.75
2022-08-12T09:07:51.642Z,97801.63
2022-08-12T09:10:15.646Z,97800.34
2022-08-12T09:13:19.281Z,97789.81
2022-08-12T09:15:55.931Z,97793.16
2022-08-12T09:18:30.910Z,97802.19
2022-08-12T09:21:02.261Z,97800.31
2022-08-12T09:24:00.012Z,97793.56
2022-08-12T09:26:46.578Z,97800.47
2022-08-12T09:30:10.029Z,97788.78
2022-08-12T09:32:12.558Z,97789.38
2022-08-12T09:34:57.598Z,97791.38
2022-08-12T09:37:26.791Z,97791.66
2022-08-12T09:40:01.782Z,97787.06
2022-08-12T09:43:15.972Z,97790.63
2022-08-12T09:46:20.834Z,97768.56
2022-08-12T09:48:35.160Z,97770.50
2022-08-12T09:51:16.752Z,97762.84
2022-08-12T09:54:06.037Z,97760.47
2022-08-12T09:56:58.098Z,97751.22
2022-08-12T10:00:16.791Z,97753.97
2022-08-12T10:02:43.900Z,97747.97
2022-08-12T10:05:14.001Z,97744.44
2022-08-12T10:07:45.789Z,97743.63
2022-08-12T10:10:23.801Z,97743.63
2022-08-12T10:13:36.013Z,97739.34
2022-08-12T10:16:07.161Z,97730.34
2022-08-12T10:18:56.138Z,97731.72
2022-08-12T10:21:36.329Z,97732.31
2022-08-12T10:24:12.007Z,97722.75
2022-08-12T10:27:05.751Z,97721.38
2022-08-12T10:30:37.938Z,97724.44
2022-08-12T10:32:42.901Z,97716.47
2022-08-12T10:35:15.779Z,97721.41
2022-08-12T10:38:38.614Z,97720.59
2022-08-12T10:40:37.623Z,97719.78
2022-08-12T10:43:24.343Z,97714.34
2022-08-12T10:45:57.162Z,97696.59
2022-08-12T10:48:33.301Z,97699.59
2022-08-12T10:52:03.367Z,97705.31
2022-08-12T10:54:00.993Z,97700.69
2022-08-12T10:56:34.433Z,97712.72
2022-08-12T10:59:05.764Z,97708.88
2022-08-12T11:04:15.072Z,97702.03
2022-08-12T11:04:49.271Z,97706.69
2022-08-12T11:08:37.146Z,97692.19
2022-08-12T11:10:07.989Z,97690.00
2022-08-12T11:12:58.777Z,97692.75
2022-08-12T11:15:32.994Z,97686.16
2022-08-12T11:18:17.806Z,97682.88
2022-08-12T11:20:48.676Z,97678.50
2022-08-12T11:23:25.070Z,97678.50
2022-08-12T11:26:06.809Z,97683.41
2022-08-12T11:28:38.051Z,97675.47
2022-08-12T11:31:14.149Z,97678.47
2022-08-12T11:34:06.569Z,97672.19
2022-08-12T11:36:31.833Z,97684.19
2022-08-12T11:39:04.360Z,97672.69
2022-08-12T11:41:39.318Z,97675.69
2022-08-12T11:44:35.490Z,97663.28
2022-08-12T11:46:54.944Z,97662.72
2022-08-12T11:49:31.305Z,97656.41
2022-08-12T11:52:35.262Z,97658.03
2022-08-12T11:54:54.328Z,97654.41
2022-08-12T11:58:09.567Z,97653.88
2022-08-12T12:02:59.239Z,97663.69
2022-08-12T12:05:28.393Z,97648.28
2022-08-12T12:08:37.785Z,97646.28
2022-08-12T12:10:55.434Z,97650.06
2022-08-12T12:14:08.031Z,97643.44
2022-08-12T12:16:12.053Z,97644.22
2022-08-12T12:18:39.839Z,97641.19
2022-08-12T12:21:09.169Z,97645.28
2022-08-12T12:23:38.405Z,97637.56
2022-08-12T12:26:34.981Z,97637.22
2022-08-12T12:29:03.511Z,97638.78
2022-08-12T12:32:11.662Z,97630.25
2022-08-12T12:34:30.169Z,97629.63
2022-08-12T12:36:58.800Z,97632.31
2022-08-12T12:39:29.120Z,97626.22
2022-08-12T12:42:49.777Z,97632.25
2022-08-12T12:44:56.644Z,97631.06
2022-08-12T12:47:29.398Z,97627.47
2022-08-12T12:49:58.119Z,97625.94
2022-08-12T12:52:27.033Z,97620.31
2022-08-12T12:54:55.782Z,97618.00
2022-08-12T12:57:59.254Z,97613.44
2022-08-12T13:00:17.950Z,97619.19
2022-08-12T13:02:57.410Z,97615.84
2022-08-12T13:05:42.699Z,97603.94
2022-08-12T13:08:28.514Z,97600.69
2022-08-12T13:11:07.043Z,97597.50
2022-08-12T13:14:07.822Z,97602.66
2022-08-12T13:16:29.343Z,97605.66
2022-08-12T13:18:58.462Z,97605.63
2022-08-12T13:21:33.200Z,97602.97
2022-08-12T13:24:09.896Z,97601.84
2022-08-12T13:26:40.387Z,97603.25
2022-08-12T13:29:11.372Z,97598.88
2022-08-12T13:31:46.424Z,97600.47
2022-08-12T13:34:34.400Z,97595.59
2022-08-12T13:37:09.758Z,97600.47
2022-08-12T13:39:39.358Z,97591.16
2022-08-12T13:42:14.283Z,97590.88
2022-08-12T13:44:46.318Z,97596.19
2022-08-12T13:47:19.655Z,97597.56
2022-08-12T13:49:54.977Z,97600.00
2022-08-12T13:52:24.328Z,97593.56
2022-08-12T13:54:56.046Z,97587.25
2022-08-12T13:57:47.051Z,97595.06
2022-08-12T14:00:16.058Z,97590.19
2022-08-12T14:02:44.586Z,97582.78
2022-08-12T14:05:31.269Z,97589.09
2022-08-12T14:08:06.760Z,97580.19
2022-08-12T14:10:53.509Z,97588.09
2022-08-12T14:14:04.259Z,97585.03
2022-08-12T14:16:37.535Z,97577.75
2022-08-12T14:19:10.470Z,97579.75
2022-08-12T14:22:00.858Z,97573.34
2022-08-12T14:24:40.240Z,97572.41
2022-08-12T14:27:11.003Z,97577.47
2022-08-12T14:30:04.333Z,97577.31
2022-08-12T14:32:35.633Z,97576.06
2022-08-12T14:35:09.273Z,97571.31
2022-08-12T14:37:56.106Z,97571.44
2022-08-12T14:40:30.852Z,97567.47
2022-08-12T14:42:59.791Z,97564.84
2022-08-12T14:45:45.171Z,97564.16
2022-08-12T14:48:24.527Z,97566.34
2022-08-12T14:51:09.678Z,97561.09
2022-08-12T14:55:00.207Z,97559.16
2022-08-12T14:57:00.019Z,97558.13
2022-08-12T14:59:56.417Z,97567.28
2022-08-12T15:02:26.540Z,97563.94
2022-08-12T15:05:03.500Z,97574.38
2022-08-12T15:07:33.888Z,97568.44
2022-08-12T15:10:31.816Z,97568.22
2022-08-12T15:13:06.866Z,97564.13
2022-08-12T15:15:57.915Z,97559.53
2022-08-12T15:18:26.258Z,97555.28
2022-08-12T15:21:03.577Z,97554.91
2022-08-12T15:23:45.731Z,97559.75
2022-08-12T15:26:28.302Z,97555.78
2022-08-12T15:28:57.613Z,97549.59
2022-08-12T15:31:28.177Z,97548.63
2022-08-12T15:34:13.296Z,97549.03
2022-08-12T15:36:54.214Z,97561.97
2022-08-12T15:39:23.321Z,97554.50
2022-08-12T15:41:55.440Z,97554.00
2022-08-12T15:44:41.612Z,97561.38
2022-08-12T15:47:10.915Z,97553.34
2022-08-12T15:49:55.032Z,97551.94
2022-08-12T15:52:29.379Z,97548.19
2022-08-12T15:55:06.449Z,97553.41
2022-08-12T15:57:53.346Z,97557.56
2022-08-12T16:00:32.808Z,97554.72
2022-08-12T16:03:14.400Z,97559.44
2022-08-12T16:06:16.907Z,97553.22
2022-08-12T16:08:43.818Z,97553.38
2022-08-12T16:11:14.734Z,97545.34
2022-08-12T16:13:44.213Z,97551.53
2022-08-12T16:16:24.301Z,97551.59
2022-08-12T16:19:01.935Z,97560.94
2022-08-12T16:21:52.274Z,97553.38
2022-08-12T16:24:20.494Z,97550.06
2022-08-12T16:26:51.095Z,97552.75
2022-08-12T16:29:24.554Z,97546.53
2022-08-12T16:31:54.431Z,97543.72
2022-08-12T16:34:25.909Z,97542.81
2022-08-12T16:37:13.279Z,97541.56
2022-08-12T16:40:00.839Z,97538.75
2022-08-12T16:42:31.432Z,97535.41
2022-08-12T16:45:02.757Z,97534.38
2022-08-12T16:47:57.280Z,97528.66
2022-08-12T16:50:19.856Z,97525.09
2022-08-12T16:52:49.428Z,97529.72
2022-08-12T16:55:18.588Z,97522.47
2022-08-12T16:57:49.401Z,97525.13
2022-08-12T17:00:18.872Z,97522.03
2022-08-12T17:02:50.688Z,97527.75
2022-08-12T17:05:31.030Z,97527.13
2022-08-12T17:08:00.728Z,97531.84
2022-08-12T17:10:36.180Z,97531.97
2022-08-12T17:13:10.574Z,97528.28
2022-08-12T17:15:56.940Z,97523.16
2022-08-12T17:18:43.792Z,97531.19
2022-08-12T17:21:19.952Z,97528.00
2022-08-12T17:24:15.211Z,97530.41
2022-08-12T17:26:49.151Z,97527.63
2022-08-12T17:29:24.241Z,97522.91
2022-08-12T17:32:10.244Z,97528.31
2022-08-12T17:34:57.060Z,97535.56
2022-08-12T17:37:24.905Z,97529.94
2022-08-12T17:40:13.528Z,97537.50
2022-08-12T17:42:47.545Z,97541.22
2022-08-12T17:45:20.199Z,97540.59
2022-08-12T17:48:01.817Z,97547.31
2022-08-12T17:50:42.664Z,97536.94
2022-08-12T17:53:16.094Z,97542.88
2022-08-12T17:55:52.324Z,97543.00
2022-08-12T17:58:36.874Z,97548.34
2022-08-12T18:01:11.005Z,97545.41
2022-08-12T18:04:06.977Z,97545.50
2022-08-12T18:06:34.643Z,97538.22
2022-08-12T18:09:08.817Z,97539.66
2022-08-12T18:12:06.345Z,97543.88
2022-08-12T18:14:38.122Z,97542.03
2022-08-12T18:17:10.095Z,97553.09
2022-08-12T18:20:06.960Z,97554.31
2022-08-12T18:22:30.733Z,97562.81
2022-08-12T18:25:05.468Z,97559.38
2022-08-12T18:27:46.807Z,97559.97
2022-08-12T18:30:28.918Z,97563.84
2022-08-12T18:33:05.285Z,97567.47
2022-08-12T18:35:46.976Z,97559.31
2022-08-12T18:38:25.228Z,97559.63
2022-08-12T18:41:21.964Z,97554.75
2022-08-12T18:44:04.658Z,97558.88
2022-08-12T18:46:55.293Z,97560.00
2022-08-12T18:49:39.198Z,97563.09
2022-08-12T18:52:11.789Z,97564.78
2022-08-12T18:54:48.983Z,97560.41
2022-08-12T18:58:06.825Z,97566.75
2022-08-12T19:00:20.920Z,97563.78
2022-08-12T19:02:53.049Z,97569.25
2022-08-12T19:05:45.791Z,97569.00
2022-08-12T19:08:14.506Z,97569.84
2022-08-12T19:10:50.292Z,97569.06
2022-08-12T19:13:40.058Z,97571.00
2022-08-12T19:16:11.272Z,97578.13
2022-08-12T19:18:45.202Z,97576.22
2022-08-12T19:21:16.947Z,97578.38
2022-08-12T19:24:08.918Z,97585.47
2022-08-12T19:26:37.592Z,97587.97
2022-08-12T19:29:07.665Z,97594.78
2022-08-12T19:31:58.927Z,97585.22
2022-08-12T19:38:02.619Z,97589.31
2022-08-12T19:40:32.495Z,97596.94
2022-08-12T19:43:21.791Z,97593.09
2022-08-12T19:45:56.297Z,97599.38
2022-08-12T19:48:32.614Z,97599.88
2022-08-12T19:51:08.685Z,97607.53
2022-08-12T19:53:40.606Z,97604.25
2022-08-12T19:56:28.121Z,97611.63
2022-08-12T19:59:20.521Z,97604.22
2022-08-12T20:02:02.744Z,97608.88
2022-08-12T20:04:38.612Z,97610.50
2022-08-12T20:07:23.038Z,97613.47
2022-08-12T20:09:53.851Z,97608.03
2022-08-12T20:12:30.930Z,97617.81
2022-08-12T20:15:05.277Z,97612.91
2022-08-12T20:17:36.460Z,97615.63
2022-08-12T20:20:27.665Z,97619.16
2022-08-12T20:22:58.089Z,97619.16
2022-08-12T20:25:28.475Z,97619.38
2022-08-12T20:28:14.561Z,97621.03
2022-08-12T20:30:53.523Z,97616.38
2022-08-12T20:34:24.713Z,97616.63
2022-08-12T20:37:04.706Z,97619.09
2022-08-12T20:40:54.348Z,97614.47
2022-08-12T20:43:24.184Z,97623.16
2022-08-12T20:45:58.135Z,97619.28
2022-08-12T20:48:28.581Z,97614.66
2022-08-12T20:51:04.385Z,97621.44
2022-08-12T20:53:58.639Z,97618.72
2022-08-12T20:56:34.608Z,97622.56
2022-08-12T20:59:14.856Z,97620.91
2022-08-12T21:01:48.892Z,97616.53
2022-08-12T21:04:36.781Z,97628.50
2022-08-12T21:07:10.437Z,97624.72
2022-08-12T21:09:47.655Z,97628.81
2022-08-12T21:12:28.412Z,97622.53
2022-08-12T21:15:17.654Z,97631.78
2022-08-12T21:18:11.842Z,97624.44
2022-08-12T21:20:53.180Z,97628.78
2022-08-12T21:23:23.439Z,97620.56
2022-08-12T21:26:01.215Z,97623.81
2022-08-12T21:28:31.733Z,97627.38
2022-08-12T21:32:35.510Z,97623.81
2022-08-12T21:34:06.990Z,97625.97
2022-08-12T21:36:39.883Z,97631.38
2022-08-12T21:39:18.868Z,97638.22
2022-08-12T21:41:55.619Z,97632.19
2022-08-12T21:45:47.216Z,97623.72
2022-08-12T21:47:20.034Z,97632.94
2022-08-12T21:50:03.012Z,97642.19
2022-08-12T21:52:42.310Z,97642.72
2022-08-12T21:55:18.599Z,97638.03
2022-08-12T21:57:53.347Z,97641.28
2022-08-12T22:00:31.943Z,97638.28
2022-08-12T22:04:04.041Z,97638.53
2022-08-12T22:06:31.029Z,97639.81
2022-08-12T22:09:16.868Z,97644.66
2022-08-12T22:11:56.003Z,97640.75
2022-08-12T22:14:28.792Z,97642.56
2022-08-12T22:16:58.881Z,97635.13
2022-08-12T22:19:29.025Z,97635.06
2022-08-12T22:22:04.748Z,97643.75
2022-08-12T22:24:34.528Z,97641.47
2022-08-12T22:27:08.302Z,97641.69
2022-08-12T22:30:16.923Z,97641.13
2022-08-12T22:32:50.448Z,97655.75
2022-08-12T22:35:55.615Z,97656.72
2022-08-12T22:38:26.689Z,97657.81
2022-08-12T22:41:01.659Z,97656.13
2022-08-12T22:44:00.845Z,97652.25
2022-08-12T22:46:52.606Z,97651.94
2022-08-12T22:49:37.035Z,97650.81
2022-08-12T22:52:18.697Z,97642.25
2022-08-12T22:55:02.894Z,97647.06
2022-08-12T22:57:49.121Z,97644.84
2022-08-12T23:00:23.909Z,97646.69
2022-08-12T23:02:56.869Z,97639.53
2022-08-12T23:05:57.465Z,97650.09
2022-08-12T23:08:23.695Z,97639.13
2022-08-12T23:11:00.080Z,97638.19
2022-08-12T23:13:49.113Z,97634.59
2022-08-12T23:16:31.051Z,97636.44
2022-08-12T23:19:17.810Z,97641.22
2022-08-12T23:22:05.857Z,97638.41
2022-08-12T23:24:56.656Z,97637.84
2022-08-12T23:27:52.107Z,97628.78
2022-08-12T23:30:32.394Z,97621.72
2022-08-12T23:33:19.949Z,97626.25
2022-08-12T23:36:02.870Z,97626.72
2022-08-12T23:38:33.095Z,97618.50
2022-08-12T23:41:03.981Z,97619.81
2022-08-12T23:43:38.930Z,97631.19
2022-08-12T23:46:19.320Z,97628.22
2022-08-12T23:48:53.060Z,97626.34
2022-08-12T23:51:26.206Z,97625.25
2022-08-12T23:54:00.136Z,97626.91
2022-08-12T23:56:34.001Z,97616.53
2022-08-12T23:59:07.780Z,97614.03
